createdAt,value
2018-07-08T00:00:37.000Z,25.9
2018-07-08T00:01:37.000Z,25.9
2018-07-08T00:03:37.000Z,25.8
2018-07-08T00:04:37.000Z,25.8
2018-07-08T00:06:37.000Z,25.8
2018-07-08T00:08:37.000Z,25.8
2018-07-08T00:09:37.000Z,25.8
2018-07-08T00:11:37.000Z,25.7
2018-07-08T00:12:37.000Z,25.7
2018-07-08T00:14:37.000Z,25.6
2018-07-08T00:15:37.000Z,25.6
2018-07-08T00:17:37.000Z,25.6
2018-07-08T00:19:37.000Z,25.5
2018-07-08T00:21:37.000Z,25.4
2018-07-08T00:22:37.000Z,25.4
2018-07-08T00:24:37.000Z,25.5
2018-07-08T00:26:22.000Z,25.4
2018-07-08T00:27:37.000Z,25.4
2018-07-08T00:29:37.000Z,25.4
2018-07-08T00:30:37.000Z,25.4
2018-07-08T00:31:37.000Z,25.4
2018-07-08T00:33:37.000Z,25.5
2018-07-08T00:34:37.000Z,25.4
2018-07-08T00:35:37.000Z,25.5
2018-07-08T00:37:37.000Z,25.5
2018-07-08T00:38:37.000Z,25.5
2018-07-08T00:39:37.000Z,25.5
2018-07-08T00:40:37.000Z,25.6
2018-07-08T00:42:37.000Z,25.5
2018-07-08T00:43:37.000Z,25.5
2018-07-08T00:44:37.000Z,25.5
2018-07-08T00:46:37.000Z,25.5
2018-07-08T00:47:37.000Z,25.5
2018-07-08T00:49:37.000Z,25.5
2018-07-08T00:50:37.000Z,25.4
2018-07-08T00:52:37.000Z,25.4
2018-07-08T00:53:37.000Z,25.4
2018-07-08T00:55:37.000Z,25.3
2018-07-08T00:56:37.000Z,25.3
2018-07-08T00:58:22.000Z,25.3
2018-07-08T00:59:37.000Z,25.2
2018-07-08T01:00:37.000Z,25.2
2018-07-08T01:02:22.000Z,25.2
2018-07-08T01:03:37.000Z,25.1
2018-07-08T01:05:37.000Z,25.1
2018-07-08T01:07:37.000Z,25.1
2018-07-08T01:08:37.000Z,25.1
2018-07-08T01:10:37.000Z,25
2018-07-08T01:11:37.000Z,25
2018-07-08T01:12:37.000Z,25
2018-07-08T01:13:37.000Z,25
2018-07-08T01:15:22.000Z,25.1
2018-07-08T01:16:37.000Z,25
2018-07-08T01:18:37.000Z,25
2018-07-08T01:20:37.000Z,24.9
2018-07-08T01:21:37.000Z,24.9
2018-07-08T01:23:37.000Z,24.9
2018-07-08T01:24:37.000Z,24.9
2018-07-08T01:26:37.000Z,24.9
2018-07-08T01:28:37.000Z,24.9
2018-07-08T01:29:37.000Z,24.9
2018-07-08T01:31:22.000Z,24.9
2018-07-08T01:32:37.000Z,24.9
2018-07-08T01:34:22.000Z,24.9
2018-07-08T01:35:37.000Z,24.8
2018-07-08T01:36:37.000Z,24.8
2018-07-08T01:38:37.000Z,24.8
2018-07-08T01:40:37.000Z,24.8
2018-07-08T01:42:37.000Z,24.8
2018-07-08T01:43:37.000Z,24.8
2018-07-08T01:45:37.000Z,24.8
2018-07-08T01:47:37.000Z,24.8
2018-07-08T01:48:37.000Z,24.7
2018-07-08T01:50:37.000Z,24.7
2018-07-08T01:51:37.000Z,24.7
2018-07-08T01:53:37.000Z,24.7
2018-07-08T01:54:37.000Z,24.7
2018-07-08T01:56:37.000Z,24.7
2018-07-08T01:57:37.000Z,24.6
2018-07-08T01:59:37.000Z,24.6
2018-07-08T02:01:37.000Z,24.4
2018-07-08T02:02:37.000Z,24.4
2018-07-08T02:04:37.000Z,24.4
2018-07-08T02:06:37.000Z,24.4
2018-07-08T02:07:37.000Z,24.3
2018-07-08T02:09:37.000Z,24.4
2018-07-08T02:11:37.000Z,24.4
2018-07-08T02:12:37.000Z,24.3
2018-07-08T02:14:37.000Z,24.3
2018-07-08T02:16:37.000Z,24.3
2018-07-08T02:17:37.000Z,24.3
2018-07-08T02:19:37.000Z,24.3
2018-07-08T02:21:37.000Z,24.2
2018-07-08T02:22:37.000Z,24.2
2018-07-08T02:23:37.000Z,24.3
2018-07-08T02:24:37.000Z,24.3
2018-07-08T02:26:37.000Z,24.3
2018-07-08T02:27:37.000Z,24.3
2018-07-08T02:29:37.000Z,24.3
2018-07-08T02:30:37.000Z,24.3
2018-07-08T02:32:37.000Z,24.2
2018-07-08T02:33:37.000Z,24.2
2018-07-08T02:35:37.000Z,24.2
2018-07-08T02:37:37.000Z,24
2018-07-08T02:39:37.000Z,24
2018-07-08T02:40:37.000Z,24
2018-07-08T02:42:37.000Z,24
2018-07-08T02:43:37.000Z,24
2018-07-08T02:44:37.000Z,24.1
2018-07-08T02:46:22.000Z,24.2
2018-07-08T02:47:37.000Z,24.1
2018-07-08T02:49:22.000Z,24.1
2018-07-08T02:50:37.000Z,24
2018-07-08T02:52:37.000Z,24
2018-07-08T02:53:37.000Z,24
2018-07-08T02:54:37.000Z,24
2018-07-08T02:56:37.000Z,24
2018-07-08T02:58:37.000Z,24
2018-07-08T03:00:37.000Z,23.9
2018-07-08T03:01:37.000Z,23.9
2018-07-08T03:02:37.000Z,24
2018-07-08T03:03:37.000Z,24
2018-07-08T03:05:37.000Z,24
2018-07-08T03:06:37.000Z,24
2018-07-08T03:08:37.000Z,24
2018-07-08T03:09:37.000Z,24
2018-07-08T03:10:37.000Z,24
2018-07-08T03:12:37.000Z,23.9
2018-07-08T03:14:37.000Z,23.9
2018-07-08T03:16:37.000Z,23.8
2018-07-08T03:18:37.000Z,23.7
2018-07-08T03:19:37.000Z,23.7
2018-07-08T03:21:37.000Z,23.7
2018-07-08T03:23:37.000Z,23.7
2018-07-08T03:25:37.000Z,23.7
2018-07-08T03:27:37.000Z,23.6
2018-07-08T03:28:37.000Z,23.6
2018-07-08T03:30:37.000Z,23.6
2018-07-08T03:31:37.000Z,23.7
2018-07-08T03:33:37.000Z,23.7
2018-07-08T03:35:37.000Z,23.6
2018-07-08T03:37:37.000Z,23.6
2018-07-08T03:39:37.000Z,23.6
2018-07-08T03:40:37.000Z,23.5
2018-07-08T03:42:37.000Z,23.6
2018-07-08T03:43:37.000Z,23.6
2018-07-08T03:45:38.000Z,23.6
2018-07-08T04:22:12.000Z,21.6
2018-07-08T04:24:12.000Z,21.9
2018-07-08T04:26:12.000Z,22.3
2018-07-08T04:28:12.000Z,22.5
2018-07-08T04:29:12.000Z,22.7
2018-07-08T04:31:12.000Z,22.9
2018-07-08T04:32:57.000Z,23.1
2018-07-08T04:34:12.000Z,23.2
2018-07-08T04:35:12.000Z,23.2
2018-07-08T04:36:12.000Z,23.3
2018-07-08T04:38:12.000Z,23.5
2018-07-08T04:40:12.000Z,23.6
2018-07-08T04:41:12.000Z,23.6
2018-07-08T04:42:12.000Z,23.7
2018-07-08T04:44:12.000Z,23.7
2018-07-08T04:45:12.000Z,23.7
2018-07-08T04:47:12.000Z,23.7
2018-07-08T04:48:12.000Z,23.7
2018-07-08T04:50:12.000Z,23.7
2018-07-08T04:52:12.000Z,23.7
2018-07-08T04:54:12.000Z,23.6
2018-07-08T04:56:12.000Z,23.6
2018-07-08T04:57:12.000Z,23.6
2018-07-08T04:59:12.000Z,23.7
2018-07-08T05:01:12.000Z,23.7
2018-07-08T05:03:12.000Z,23.7
2018-07-08T05:04:12.000Z,23.8
2018-07-08T05:05:57.000Z,23.9
2018-07-08T05:07:12.000Z,23.8
2018-07-08T05:08:12.000Z,23.8
2018-07-08T05:09:12.000Z,23.9
2018-07-08T05:11:12.000Z,23.9
2018-07-08T05:12:12.000Z,24
2018-07-08T05:14:12.000Z,24
2018-07-08T05:16:12.000Z,24
2018-07-08T05:18:12.000Z,23.9
2018-07-08T05:20:12.000Z,23.9
2018-07-08T05:22:12.000Z,23.9
2018-07-08T05:24:12.000Z,24
2018-07-08T05:25:12.000Z,24
2018-07-08T05:26:12.000Z,24
2018-07-08T05:28:12.000Z,24.2
2018-07-08T05:29:12.000Z,24.3
2018-07-08T05:30:12.000Z,24.3
2018-07-08T05:32:12.000Z,24.4
2018-07-08T05:33:12.000Z,24.4
2018-07-08T05:34:12.000Z,24.4
2018-07-08T05:36:12.000Z,24.4
2018-07-08T05:38:12.000Z,24.3
2018-07-08T05:40:12.000Z,24.2
2018-07-08T05:42:12.000Z,24.2
2018-07-08T05:44:12.000Z,24.1
2018-07-08T05:45:12.000Z,24.1
2018-07-08T05:47:12.000Z,24.2
2018-07-08T05:48:12.000Z,24.2
2018-07-08T05:50:11.000Z,24.3
2018-07-08T05:51:11.000Z,24.4
2018-07-08T05:52:11.000Z,24.4
2018-07-08T05:53:11.000Z,24.5
2018-07-08T05:54:11.000Z,24.5
2018-07-08T05:56:11.000Z,24.7
2018-07-08T05:57:11.000Z,24.7
2018-07-08T05:59:11.000Z,24.8
2018-07-08T06:00:11.000Z,24.9
2018-07-08T06:01:11.000Z,24.9
2018-07-08T06:02:11.000Z,24.9
2018-07-08T06:04:11.000Z,25
2018-07-08T06:06:11.000Z,24.9
2018-07-08T06:08:11.000Z,24.9
2018-07-08T06:09:11.000Z,24.9
2018-07-08T06:11:11.000Z,25
2018-07-08T06:13:11.000Z,25
2018-07-08T06:15:11.000Z,25
2018-07-08T06:16:11.000Z,25
2018-07-08T06:18:11.000Z,24.9
2018-07-08T06:20:11.000Z,25
2018-07-08T06:22:11.000Z,25
2018-07-08T06:24:11.000Z,25
2018-07-08T06:25:11.000Z,25
2018-07-08T06:27:11.000Z,25.1
2018-07-08T06:28:11.000Z,25.2
2018-07-08T06:30:11.000Z,25.3
2018-07-08T06:32:11.000Z,25.3
2018-07-08T06:34:11.000Z,25.3
2018-07-08T06:35:56.000Z,25.4
2018-07-08T06:37:11.000Z,25.4
2018-07-08T06:39:11.000Z,25.4
2018-07-08T06:41:11.000Z,25.5
2018-07-08T06:43:11.000Z,25.5
2018-07-08T06:45:11.000Z,25.5
2018-07-08T06:47:11.000Z,25.5
2018-07-08T06:49:11.000Z,25.5
2018-07-08T06:51:11.000Z,25.4
2018-07-08T06:52:11.000Z,25.5
2018-07-08T06:54:12.000Z,25.6
2018-07-08T06:55:12.000Z,25.6
2018-07-08T06:57:12.000Z,25.7
2018-07-08T06:59:12.000Z,25.7
2018-07-08T07:00:12.000Z,25.7
2018-07-08T07:02:12.000Z,25.8
2018-07-08T07:03:12.000Z,25.8
2018-07-08T07:05:12.000Z,25.9
2018-07-08T07:07:12.000Z,26
2018-07-08T07:08:57.000Z,26.1
2018-07-08T07:10:12.000Z,26.1
2018-07-08T07:11:12.000Z,26.2
2018-07-08T07:13:12.000Z,26.2
2018-07-08T07:14:12.000Z,26.2
2018-07-08T07:15:12.000Z,26.3
2018-07-08T07:17:12.000Z,26.4
2018-07-08T07:19:12.000Z,26.3
2018-07-08T07:20:12.000Z,26.2
2018-07-08T07:21:12.000Z,26.2
2018-07-08T07:23:12.000Z,26.3
2018-07-08T07:25:12.000Z,26.4
2018-07-08T07:27:12.000Z,26.4
2018-07-08T07:29:12.000Z,26.4
2018-07-08T07:31:12.000Z,26.4
2018-07-08T07:32:12.000Z,26.5
2018-07-08T07:33:12.000Z,26.6
2018-07-08T07:35:12.000Z,26.8
2018-07-08T07:36:12.000Z,26.9
2018-07-08T07:38:12.000Z,27
2018-07-08T07:40:12.000Z,27
2018-07-08T07:41:12.000Z,27.1
2018-07-08T07:42:12.000Z,27.2
2018-07-08T07:44:12.000Z,27.3
2018-07-08T07:46:12.000Z,27.3
2018-07-08T07:51:12.000Z,26.9
2018-07-08T07:52:58.000Z,26.8
2018-07-08T07:54:58.000Z,26.9
2018-07-08T07:55:58.000Z,27
2018-07-08T07:57:58.000Z,27.2
2018-07-08T07:58:58.000Z,27.2
2018-07-08T08:00:58.000Z,27.4
2018-07-08T08:02:58.000Z,27.5
2018-07-08T08:04:58.000Z,27.5
2018-07-08T08:06:58.000Z,27.5
2018-07-08T08:08:58.000Z,27.5
2018-07-08T08:09:58.000Z,27.5
2018-07-08T08:10:58.000Z,27.5
2018-07-08T08:12:58.000Z,27.7
2018-07-08T08:13:58.000Z,27.8
2018-07-08T08:14:58.000Z,27.9
2018-07-08T08:18:58.000Z,27.8
2018-07-08T08:20:44.000Z,27.8
2018-07-08T08:22:44.000Z,27.9
2018-07-08T08:23:44.000Z,28
2018-07-08T08:25:44.000Z,28.2
2018-07-08T08:26:44.000Z,28.3
2018-07-08T08:28:44.000Z,28.3
2018-07-08T08:30:44.000Z,28.2
2018-07-08T08:31:44.000Z,28.1
2018-07-08T08:33:44.000Z,28.2
2018-07-08T08:35:44.000Z,28.7
2018-07-08T08:37:44.000Z,29.6
2018-07-08T08:38:44.000Z,30.1
2018-07-08T08:39:44.000Z,30.7
2018-07-08T08:41:44.000Z,31.2
2018-07-08T08:43:44.000Z,30.8
2018-07-08T08:45:44.000Z,30.2
2018-07-08T08:47:44.000Z,29.8
2018-07-08T08:48:44.000Z,29.6
2018-07-08T08:50:44.000Z,29.3
2018-07-08T08:51:44.000Z,29.2
2018-07-08T08:53:44.000Z,28.9
2018-07-08T08:55:44.000Z,28.7
2018-07-08T08:57:44.000Z,28.6
2018-07-08T08:59:43.000Z,28.4
2018-07-08T09:01:43.000Z,28.3
2018-07-08T09:02:43.000Z,28.2
2018-07-08T09:04:43.000Z,28.1
2018-07-08T09:05:43.000Z,28.1
2018-07-08T09:07:43.000Z,28.1
2018-07-08T09:09:43.000Z,28.1
2018-07-08T09:10:43.000Z,28.1
2018-07-08T09:12:43.000Z,28.1
2018-07-08T09:14:43.000Z,28.1
2018-07-08T09:16:43.000Z,28
2018-07-08T09:18:43.000Z,28
2018-07-08T09:20:43.000Z,27.9
2018-07-08T09:21:43.000Z,27.9
2018-07-08T09:23:43.000Z,28
2018-07-08T09:25:43.000Z,28
2018-07-08T09:27:43.000Z,27.9
2018-07-08T09:29:43.000Z,27.9
2018-07-08T09:30:43.000Z,27.9
2018-07-08T09:32:43.000Z,28
2018-07-08T09:34:43.000Z,28
2018-07-08T09:36:43.000Z,28
2018-07-08T09:38:28.000Z,28
2018-07-08T09:39:43.000Z,27.9
2018-07-08T09:40:43.000Z,28
2018-07-08T09:41:43.000Z,28
2018-07-08T09:43:43.000Z,28.1
2018-07-08T09:44:43.000Z,28.2
2018-07-08T09:46:43.000Z,28.2
2018-07-08T09:48:43.000Z,28.2
2018-07-08T09:49:43.000Z,28.3
2018-07-08T09:51:43.000Z,28.3
2018-07-08T09:53:43.000Z,28.3
2018-07-08T09:54:43.000Z,28.3
2018-07-08T09:55:43.000Z,28.3
2018-07-08T09:57:43.000Z,28.3
2018-07-08T09:58:43.000Z,28.3
2018-07-08T10:00:43.000Z,28.3
2018-07-08T10:01:43.000Z,28.3
2018-07-08T10:03:44.000Z,28.3
2018-07-08T10:04:44.000Z,28.3
2018-07-08T10:05:44.000Z,28.4
2018-07-08T10:06:44.000Z,28.4
2018-07-08T10:08:44.000Z,28.4
2018-07-08T10:10:44.000Z,28.4
2018-07-08T10:11:44.000Z,28.4
2018-07-08T10:13:44.000Z,28.5
2018-07-08T10:17:29.000Z,27.9
2018-07-08T10:19:29.000Z,28
2018-07-08T10:20:29.000Z,28
2018-07-08T10:22:14.000Z,28.1
2018-07-08T10:23:29.000Z,28.2
2018-07-08T10:25:14.000Z,28.2
2018-07-08T10:26:29.000Z,28.2
2018-07-08T10:27:29.000Z,28.3
2018-07-08T10:31:30.000Z,28
2018-07-08T10:33:16.000Z,28
2018-07-08T10:35:16.000Z,28.1
2018-07-08T10:37:16.000Z,28.2
2018-07-08T10:39:16.000Z,28.2
2018-07-08T10:41:16.000Z,28.3
2018-07-08T10:43:16.000Z,28.4
2018-07-08T10:44:16.000Z,28.4
2018-07-08T10:46:16.000Z,28.5
2018-07-08T10:47:16.000Z,28.5
2018-07-08T10:49:16.000Z,28.6
2018-07-08T10:51:16.000Z,28.6
2018-07-08T10:53:16.000Z,28.6
2018-07-08T10:55:16.000Z,28.6
2018-07-08T10:57:16.000Z,28.5
2018-07-08T10:58:16.000Z,28.5
2018-07-08T11:00:16.000Z,28.6
2018-07-08T11:02:16.000Z,28.6
2018-07-08T11:03:16.000Z,28.5
2018-07-08T11:05:16.000Z,28.6
2018-07-08T11:06:16.000Z,28.6
2018-07-08T11:07:15.000Z,28.7
2018-07-08T11:08:15.000Z,28.8
2018-07-08T11:09:15.000Z,28.9
2018-07-08T11:11:15.000Z,29
2018-07-08T11:12:15.000Z,29
2018-07-08T11:14:15.000Z,29
2018-07-08T11:15:15.000Z,29
2018-07-08T11:16:15.000Z,29.1
2018-07-08T11:17:15.000Z,29.1
2018-07-08T11:18:15.000Z,29.1
2018-07-08T11:19:15.000Z,29.2
2018-07-08T11:21:15.000Z,29.2
2018-07-08T11:23:15.000Z,29.1
2018-07-08T11:25:00.000Z,29.1
2018-07-08T11:26:15.000Z,29
2018-07-08T11:28:15.000Z,29
2018-07-08T11:30:15.000Z,29
2018-07-08T11:31:15.000Z,28.9
2018-07-08T11:32:15.000Z,29
2018-07-08T11:33:15.000Z,29
2018-07-08T11:35:15.000Z,29.1
2018-07-08T11:37:15.000Z,29.1
2018-07-08T11:38:15.000Z,29
2018-07-08T11:40:15.000Z,29.1
2018-07-08T11:41:15.000Z,29.1
2018-07-08T11:42:15.000Z,29.1
2018-07-08T11:44:15.000Z,29.2
2018-07-08T11:45:15.000Z,29.2
2018-07-08T11:47:15.000Z,29.2
2018-07-08T11:48:15.000Z,29.2
2018-07-08T11:49:15.000Z,29.3
2018-07-08T11:51:15.000Z,29.3
2018-07-08T11:52:15.000Z,29.3
2018-07-08T11:53:15.000Z,29.3
2018-07-08T11:55:15.000Z,29.3
2018-07-08T11:56:15.000Z,29.3
2018-07-08T11:58:00.000Z,29.3
2018-07-08T11:59:15.000Z,29.2
2018-07-08T12:00:15.000Z,29.2
2018-07-08T12:02:00.000Z,29.3
2018-07-08T12:03:15.000Z,29.3
2018-07-08T12:04:15.000Z,29.3
2018-07-08T12:06:15.000Z,29.3
2018-07-08T12:08:15.000Z,29.2
2018-07-08T12:09:15.000Z,29.2
2018-07-08T12:10:15.000Z,29.2
2018-07-08T12:12:15.000Z,29.3
2018-07-08T12:14:15.000Z,29.3
2018-07-08T12:15:15.000Z,29.3
2018-07-08T12:17:15.000Z,29.3
2018-07-08T12:19:15.000Z,29.3
2018-07-08T12:20:15.000Z,29.3
2018-07-08T12:22:15.000Z,29.3
2018-07-08T12:24:15.000Z,29.3
2018-07-08T12:25:15.000Z,29.3
2018-07-08T12:27:15.000Z,29.3
2018-07-08T12:29:00.000Z,29.2
2018-07-08T12:30:15.000Z,29.2
2018-07-08T12:32:15.000Z,29.2
2018-07-08T12:34:15.000Z,29.3
2018-07-08T12:35:15.000Z,29.3
2018-07-08T12:37:15.000Z,29.3
2018-07-08T12:39:15.000Z,29.3
2018-07-08T12:40:15.000Z,29.4
2018-07-08T12:42:15.000Z,29.4
2018-07-08T12:43:15.000Z,29.4
2018-07-08T12:45:15.000Z,29.4
2018-07-08T12:46:15.000Z,29.4
2018-07-08T12:48:00.000Z,29.5
2018-07-08T12:49:15.000Z,29.5
2018-07-08T12:50:15.000Z,29.5
2018-07-08T12:51:15.000Z,29.5
2018-07-08T12:53:15.000Z,29.6
2018-07-08T12:55:15.000Z,29.5
2018-07-08T12:56:15.000Z,29.5
2018-07-08T12:57:15.000Z,29.5
2018-07-08T12:59:15.000Z,29.6
2018-07-08T13:01:00.000Z,29.6
2018-07-08T13:02:15.000Z,29.6
2018-07-08T13:04:15.000Z,29.6
2018-07-08T13:05:15.000Z,29.6
2018-07-08T13:07:15.000Z,29.6
2018-07-08T13:08:15.000Z,29.7
2018-07-08T13:09:15.000Z,29.8
2018-07-08T13:11:15.000Z,29.9
2018-07-08T13:12:15.000Z,29.9
2018-07-08T13:14:15.000Z,29.9
2018-07-08T13:16:15.000Z,29.8
2018-07-08T13:17:15.000Z,29.8
2018-07-08T13:19:15.000Z,29.8
2018-07-08T13:20:15.000Z,29.8
2018-07-08T13:21:15.000Z,29.9
2018-07-08T13:23:15.000Z,30
2018-07-08T13:25:15.000Z,29.9
2018-07-08T13:27:15.000Z,29.8
2018-07-08T13:28:15.000Z,29.8
2018-07-08T13:30:15.000Z,29.8
2018-07-08T13:31:15.000Z,29.8
2018-07-08T13:33:15.000Z,29.9
2018-07-08T13:34:15.000Z,29.9
2018-07-08T13:35:15.000Z,30
2018-07-08T13:37:15.000Z,30
2018-07-08T13:39:15.000Z,29.9
2018-07-08T13:40:15.000Z,29.9
2018-07-08T13:41:15.000Z,30
2018-07-08T13:42:15.000Z,30
2018-07-08T13:44:15.000Z,30
2018-07-08T13:45:15.000Z,30
2018-07-08T13:47:15.000Z,30
2018-07-08T13:49:15.000Z,30
2018-07-08T13:50:15.000Z,30
2018-07-08T13:52:15.000Z,30
2018-07-08T13:54:15.000Z,30
2018-07-08T13:56:15.000Z,29.9
2018-07-08T13:58:15.000Z,29.8
2018-07-08T14:00:15.000Z,29.8
2018-07-08T14:01:15.000Z,29.8
2018-07-08T14:03:15.000Z,29.8
2018-07-08T14:05:15.000Z,29.8
2018-07-08T14:06:15.000Z,29.9
2018-07-08T14:08:15.000Z,29.9
2018-07-08T14:09:15.000Z,30
2018-07-08T14:10:15.000Z,30
2018-07-08T14:12:15.000Z,30.1
2018-07-08T14:14:15.000Z,30
2018-07-08T14:15:15.000Z,30.1
2018-07-08T14:17:16.000Z,30.1
2018-07-08T14:18:16.000Z,30.1
2018-07-08T14:19:16.000Z,30.2
2018-07-08T14:21:16.000Z,30.3
2018-07-08T14:23:16.000Z,30.2
2018-07-08T14:24:16.000Z,30.2
2018-07-08T14:25:16.000Z,30.2
2018-07-08T14:27:16.000Z,30.2
2018-07-08T14:28:16.000Z,30.2
2018-07-08T14:29:16.000Z,30.2
2018-07-08T14:31:16.000Z,30.2
2018-07-08T14:32:16.000Z,30.2
2018-07-08T14:34:16.000Z,30.3
2018-07-08T14:35:16.000Z,30.3
2018-07-08T14:37:16.000Z,30.2
2018-07-08T14:38:16.000Z,30.2
2018-07-08T14:40:16.000Z,30.2
2018-07-08T14:42:16.000Z,30.2
2018-07-08T14:44:16.000Z,30.2
2018-07-08T14:45:16.000Z,30.2
2018-07-08T14:46:16.000Z,30.2
2018-07-08T14:47:16.000Z,30.3
2018-07-08T14:48:16.000Z,30.4
2018-07-08T14:50:16.000Z,30.4
2018-07-08T14:51:16.000Z,30.4
2018-07-08T14:52:16.000Z,30.4
2018-07-08T14:54:16.000Z,30.4
2018-07-08T14:56:16.000Z,30.4
2018-07-08T14:57:16.000Z,30.4
2018-07-08T14:59:16.000Z,30.4
2018-07-08T15:01:16.000Z,30.3
2018-07-08T15:03:16.000Z,30.2
2018-07-08T15:05:16.000Z,30.2
2018-07-08T15:07:16.000Z,30.1
2018-07-08T15:09:16.000Z,30
2018-07-08T15:10:16.000Z,30
2018-07-08T15:12:16.000Z,30.1
2018-07-08T15:14:16.000Z,30.1
2018-07-08T15:15:16.000Z,30.2
2018-07-08T15:17:16.000Z,30.2
2018-07-08T15:19:16.000Z,30.2
2018-07-08T15:20:16.000Z,30.2
2018-07-08T15:22:15.000Z,30.3
2018-07-08T15:23:15.000Z,30.3
2018-07-08T15:25:00.000Z,30.3
2018-07-08T15:26:15.000Z,30.3
2018-07-08T15:28:15.000Z,30.3
2018-07-08T15:30:15.000Z,30.3
2018-07-08T15:31:15.000Z,30.3
2018-07-08T15:33:15.000Z,30.3
2018-07-08T15:34:15.000Z,30.3
2018-07-08T15:36:00.000Z,30.4
2018-07-08T15:37:15.000Z,30.3
2018-07-08T15:39:15.000Z,30.3
2018-07-08T15:40:15.000Z,30.3
2018-07-08T15:42:15.000Z,30.3
2018-07-08T15:44:15.000Z,30.3
2018-07-08T15:46:15.000Z,30.3
2018-07-08T15:48:15.000Z,30.2
2018-07-08T15:49:15.000Z,30.2
2018-07-08T15:51:15.000Z,30.2
2018-07-08T15:52:15.000Z,30.2
2018-07-08T15:54:15.000Z,30.3
2018-07-08T15:56:15.000Z,30.2
2018-07-08T15:57:15.000Z,30.2
2018-07-08T15:58:15.000Z,30.2
2018-07-08T16:00:15.000Z,30.3
2018-07-08T16:02:15.000Z,30.3
2018-07-08T16:04:15.000Z,30.2
2018-07-08T16:06:15.000Z,30.1
2018-07-08T16:07:15.000Z,30.1
2018-07-08T16:09:15.000Z,30.1
2018-07-08T16:11:00.000Z,30.2
2018-07-08T16:12:15.000Z,30.1
2018-07-08T16:13:15.000Z,30.2
2018-07-08T16:15:15.000Z,30.3
2018-07-08T16:17:15.000Z,30.3
2018-07-08T16:19:15.000Z,30.2
2018-07-08T16:20:15.000Z,30.2
2018-07-08T16:22:15.000Z,30.2
2018-07-08T16:23:15.000Z,30.1
2018-07-08T16:25:15.000Z,30.2
2018-07-08T16:27:15.000Z,30.2
2018-07-08T16:28:15.000Z,30.2
2018-07-08T16:29:15.000Z,30.2
2018-07-08T16:30:15.000Z,30.3
2018-07-08T16:32:15.000Z,30.4
2018-07-08T16:34:15.000Z,30.4
2018-07-08T16:36:15.000Z,30.3
2018-07-08T16:38:15.000Z,30.2
2018-07-08T16:39:15.000Z,30.2
2018-07-08T16:41:15.000Z,30.3
2018-07-08T16:43:15.000Z,30.2
2018-07-08T16:44:15.000Z,30.2
2018-07-08T16:46:15.000Z,30.3
2018-07-08T16:48:15.000Z,30.2
2018-07-08T16:49:15.000Z,30.2
2018-07-08T16:50:15.000Z,30.2
2018-07-08T16:51:15.000Z,30.3
2018-07-08T16:52:15.000Z,30.4
2018-07-08T16:54:00.000Z,30.4
2018-07-08T16:55:15.000Z,30.4
2018-07-08T16:57:15.000Z,30.5
2018-07-08T16:58:15.000Z,30.5
2018-07-08T17:00:00.000Z,30.5
2018-07-08T17:01:15.000Z,30.5
2018-07-08T17:03:15.000Z,30.5
2018-07-08T17:05:15.000Z,30.5
2018-07-08T17:06:15.000Z,30.5
2018-07-08T17:08:15.000Z,30.5
2018-07-08T17:10:15.000Z,30.5
2018-07-08T17:12:15.000Z,30.5
2018-07-08T17:14:15.000Z,30.4
2018-07-08T17:15:15.000Z,30.4
2018-07-08T17:17:15.000Z,30.4
2018-07-08T17:18:15.000Z,30.5
2018-07-08T17:20:15.000Z,30.5
2018-07-08T17:22:15.000Z,30.5
2018-07-08T17:24:00.000Z,30.5
2018-07-08T17:25:15.000Z,30.5
2018-07-08T17:26:15.000Z,30.5
2018-07-08T17:28:16.000Z,30.6
2018-07-08T17:29:16.000Z,30.6
2018-07-08T17:30:16.000Z,30.6
2018-07-08T17:32:16.000Z,30.6
2018-07-08T17:34:16.000Z,30.6
2018-07-08T17:36:16.000Z,30.5
2018-07-08T17:38:16.000Z,30.5
2018-07-08T17:40:16.000Z,30.5
2018-07-08T17:41:16.000Z,30.5
2018-07-08T17:43:16.000Z,30.5
2018-07-08T17:44:16.000Z,30.6
2018-07-08T17:46:16.000Z,30.6
2018-07-08T17:47:16.000Z,30.6
2018-07-08T17:48:16.000Z,30.6
2018-07-08T17:50:00.000Z,30.6
2018-07-08T17:51:16.000Z,30.5
2018-07-08T17:53:16.000Z,30.5
2018-07-08T17:54:16.000Z,30.6
2018-07-08T17:56:16.000Z,30.5
2018-07-08T17:57:16.000Z,30.5
2018-07-08T17:59:16.000Z,30.5
2018-07-08T18:00:16.000Z,30.5
2018-07-08T18:02:16.000Z,30.5
2018-07-08T18:04:16.000Z,30.5
2018-07-08T18:05:16.000Z,30.5
2018-07-08T18:07:00.000Z,30.6
2018-07-08T18:08:16.000Z,30.5
2018-07-08T18:09:16.000Z,30.5
2018-07-08T18:10:16.000Z,30.6
2018-07-08T18:11:16.000Z,30.6
2018-07-08T18:13:16.000Z,30.6
2018-07-08T18:14:16.000Z,30.6
2018-07-08T18:15:16.000Z,30.7
2018-07-08T18:16:16.000Z,30.7
2018-07-08T18:18:00.000Z,30.7
2018-07-08T18:19:16.000Z,30.6
2018-07-08T18:21:16.000Z,30.6
2018-07-08T18:22:16.000Z,30.6
2018-07-08T18:24:16.000Z,30.6
2018-07-08T18:26:16.000Z,30.5
2018-07-08T18:28:16.000Z,30.4
2018-07-08T18:30:16.000Z,30.4
2018-07-08T18:31:16.000Z,30.4
2018-07-08T18:33:15.000Z,30.4
2018-07-08T18:35:15.000Z,30.3
2018-07-08T18:37:00.000Z,30.3
2018-07-08T18:38:15.000Z,30.3
2018-07-08T18:39:15.000Z,30.3
2018-07-08T18:41:15.000Z,30.3
2018-07-08T18:43:15.000Z,30.2
2018-07-08T18:45:15.000Z,30.1
2018-07-08T18:46:15.000Z,30.1
2018-07-08T18:47:15.000Z,30.1
2018-07-08T18:49:15.000Z,30.2
2018-07-08T18:50:15.000Z,30.2
2018-07-08T18:51:15.000Z,30.2
2018-07-08T18:53:15.000Z,30.2
2018-07-08T18:55:15.000Z,30
2018-07-08T18:57:15.000Z,30
2018-07-08T18:58:15.000Z,30
2018-07-08T18:59:15.000Z,30
2018-07-08T19:01:15.000Z,30.1
2018-07-08T19:03:15.000Z,30.1
2018-07-08T19:05:15.000Z,30.1
2018-07-08T19:07:00.000Z,30.1
2018-07-08T19:08:15.000Z,30
2018-07-08T19:10:15.000Z,29.9
2018-07-08T19:11:15.000Z,29.9
2018-07-08T19:12:15.000Z,29.9
2018-07-08T19:14:15.000Z,29.9
2018-07-08T19:16:15.000Z,29.8
2018-07-08T19:18:15.000Z,29.7
2018-07-08T19:20:15.000Z,29.6
2018-07-08T19:21:15.000Z,29.6
2018-07-08T19:23:15.000Z,29.6
2018-07-08T19:24:15.000Z,29.6
2018-07-08T19:25:15.000Z,29.7
2018-07-08T19:27:15.000Z,29.7
2018-07-08T19:29:15.000Z,29.6
2018-07-08T19:31:15.000Z,29.5
2018-07-08T19:33:15.000Z,29.4
2018-07-08T19:34:15.000Z,29.4
2018-07-08T19:35:16.000Z,29.3
2018-07-08T19:36:16.000Z,29.4
2018-07-08T19:38:16.000Z,29.4
2018-07-08T19:40:16.000Z,29.3
2018-07-08T19:42:16.000Z,29.1
2018-07-08T19:44:16.000Z,29
2018-07-08T19:45:16.000Z,29
2018-07-08T19:46:16.000Z,29
2018-07-08T19:47:16.000Z,29.1
2018-07-08T19:48:16.000Z,29.1
2018-07-08T19:50:16.000Z,29.2
2018-07-08T19:52:16.000Z,29.1
2018-07-08T19:54:16.000Z,29
2018-07-08T19:55:16.000Z,29
2018-07-08T19:57:16.000Z,28.9
2018-07-08T19:58:16.000Z,28.9
2018-07-08T19:59:16.000Z,28.9
2018-07-08T20:01:16.000Z,29
2018-07-08T20:03:16.000Z,28.9
2018-07-08T20:05:16.000Z,28.7
2018-07-08T20:06:16.000Z,28.7
2018-07-08T20:07:16.000Z,28.7
2018-07-08T20:09:00.000Z,28.8
2018-07-08T20:10:16.000Z,28.7
2018-07-08T20:11:16.000Z,28.7
2018-07-08T20:12:16.000Z,28.8
2018-07-08T20:14:16.000Z,28.8
2018-07-08T20:16:16.000Z,28.7
2018-07-08T20:17:16.000Z,28.7
2018-07-08T20:19:00.000Z,28.7
2018-07-08T20:20:16.000Z,28.6
2018-07-08T20:21:16.000Z,28.6
2018-07-08T20:23:16.000Z,28.6
2018-07-08T20:25:00.000Z,28.6
2018-07-08T20:26:16.000Z,28.5
2018-07-08T20:27:16.000Z,28.5
2018-07-08T20:29:16.000Z,28.5
2018-07-08T20:31:16.000Z,28.5
2018-07-08T20:32:16.000Z,28.5
2018-07-08T20:34:16.000Z,28.5
2018-07-08T20:36:16.000Z,28.5
2018-07-08T20:38:16.000Z,28.4
2018-07-08T20:40:16.000Z,28.3
2018-07-08T20:41:16.000Z,28.4
2018-07-08T20:42:16.000Z,28.4
2018-07-08T20:44:16.000Z,28.6
2018-07-08T20:46:16.000Z,28.6
2018-07-08T20:47:16.000Z,28.6
2018-07-08T20:49:16.000Z,28.5
2018-07-08T20:50:16.000Z,28.5
2018-07-08T20:52:16.000Z,28.5
2018-07-08T20:53:16.000Z,28.5
2018-07-08T20:54:16.000Z,28.5
2018-07-08T20:55:16.000Z,28.6
2018-07-08T20:56:16.000Z,28.6
2018-07-08T20:58:16.000Z,28.6
2018-07-08T20:59:16.000Z,28.6
2018-07-08T21:00:16.000Z,28.6
2018-07-08T21:02:01.000Z,28.7
2018-07-08T21:03:16.000Z,28.6
2018-07-08T21:04:16.000Z,28.6
2018-07-08T21:06:16.000Z,28.5
2018-07-08T21:08:16.000Z,28.4
2018-07-08T21:10:16.000Z,28.3
2018-07-08T21:12:16.000Z,28.2
2018-07-08T21:14:16.000Z,28.1
2018-07-08T21:16:01.000Z,28
2018-07-08T21:17:16.000Z,28
2018-07-08T21:19:16.000Z,27.9
2018-07-08T21:21:16.000Z,27.9
2018-07-08T21:22:16.000Z,28
2018-07-08T21:24:16.000Z,28
2018-07-08T21:26:16.000Z,28
2018-07-08T21:27:16.000Z,28
2018-07-08T21:29:16.000Z,27.9
2018-07-08T21:31:16.000Z,27.9
2018-07-08T21:33:16.000Z,27.8
2018-07-08T21:34:16.000Z,27.8
2018-07-08T21:35:16.000Z,27.9
2018-07-08T21:37:16.000Z,27.9
2018-07-08T21:39:16.000Z,27.8
2018-07-08T21:40:16.000Z,27.8
2018-07-08T21:42:16.000Z,27.7
2018-07-08T21:43:16.000Z,27.7
2018-07-08T21:45:16.000Z,27.7
2018-07-08T21:46:16.000Z,27.7